Time;durP1;ratioP1;P1;durP2;ratioP2;P2;SDS_P1;SDS_P2;PMS_P1;PMS_P2;Temp;Humidity;BMP_temperature;BMP_pressure;BME280_temperature;BME280_humidity;BME280_pressure;Samples;Min_cycle;Max_cycle;Signal;HPM_P1;HPM_P2
2024/01/13 00:00:43;;;;;;;31.77;13.03;;;3.50;99.90;;;;;;4979238;28;20496;-68
2024/01/13 00:03:11;;;;;;;23.90;9.47;;;3.40;99.90;;;;;;4976378;28;20567;-67
2024/01/13 00:05:38;;;;;;;27.50;11.67;;;3.40;99.90;;;;;;4974112;28;20490;-68
2024/01/13 00:08:05;;;;;;;34.53;14.00;;;3.40;99.90;;;;;;4979283;28;20429;-67
2024/01/13 00:10:32;;;;;;;10.13;6.30;;;3.40;99.90;;;;;;4979510;28;20506;-68
2024/01/13 00:13:00;;;;;;;24.70;11.90;;;3.50;99.90;;;;;;4980013;28;20440;-68
2024/01/13 00:15:26;;;;;;;13.77;8.37;;;3.50;99.90;;;;;;4975937;28;20477;-68
2024/01/13 00:17:53;;;;;;;28.90;11.50;;;3.50;99.90;;;;;;4979220;28;20467;-68
2024/01/13 00:20:21;;;;;;;24.40;8.37;;;3.50;99.90;;;;;;4979976;28;20960;-68
2024/01/13 00:22:48;;;;;;;31.20;11.47;;;3.60;99.90;;;;;;4976573;28;20466;-68
2024/01/13 00:25:15;;;;;;;16.60;10.47;;;3.60;99.90;;;;;;4974658;28;20517;-68
2024/01/13 00:27:42;;;;;;;36.33;11.90;;;3.70;99.90;;;;;;5161905;23;20869;-69
2024/01/13 00:30:09;;;;;;;17.97;12.07;;;3.80;99.90;;;;;;4996888;28;20424;-69
2024/01/13 00:32:36;;;;;;;18.17;10.17;;;3.90;99.90;;;;;;5001137;28;20433;-68
2024/01/13 00:35:03;;;;;;;21.63;9.83;;;3.90;99.90;;;;;;4999741;28;21295;-68
2024/01/13 00:37:34;;;;;;;18.50;8.80;;;3.90;99.90;;;;;;4997782;28;21157;-67
2024/01/13 00:40:01;;;;;;;22.13;13.07;;;3.90;99.90;;;;;;5001305;28;20431;-67
2024/01/13 00:42:27;;;;;;;23.00;12.00;;;3.90;99.90;;;;;;4998097;28;20931;-67
2024/01/13 00:44:54;;;;;;;41.67;14.13;;;3.90;99.90;;;;;;5000706;28;20477;-67
2024/01/13 00:47:21;;;;;;;26.40;13.17;;;3.80;99.90;;;;;;5000747;28;20540;-67
2024/01/13 00:49:47;;;;;;;24.03;12.47;;;3.70;99.90;;;;;;4999857;28;20549;-67
2024/01/13 00:52:13;;;;;;;36.50;13.70;;;3.70;99.90;;;;;;4996265;28;20431;-67
2024/01/13 00:54:43;;;;;;;18.43;10.00;;;3.70;99.90;;;;;;5002861;28;20296;-67
2024/01/13 00:57:10;;;;;;;41.80;12.03;;;3.60;99.90;;;;;;4991748;28;20798;-67
2024/01/13 00:59:36;;;;;;;20.30;11.97;;;3.50;99.90;;;;;;5004877;28;20421;-67
2024/01/13 01:02:06;;;;;;;28.57;13.50;;;3.60;99.90;;;;;;5003825;28;20534;-67
2024/01/13 01:04:33;;;;;;;24.87;9.43;;;3.60;99.90;;;;;;5000619;28;20466;-67
2024/01/13 01:07:00;;;;;;;38.67;15.67;;;3.60;99.90;;;;;;5002157;28;20460;-67
2024/01/13 01:09:26;;;;;;;20.93;12.57;;;3.60;99.90;;;;;;5002891;28;20540;-68
2024/01/13 01:11:54;;;;;;;19.30;10.87;;;3.50;99.90;;;;;;4997082;28;20436;-67
2024/01/13 01:14:21;;;;;;;20.27;12.73;;;3.60;99.90;;;;;;5001974;28;21003;-68
2024/01/13 01:16:48;;;;;;;24.50;12.50;;;3.60;99.90;;;;;;5001417;28;20524;-67
2024/01/13 01:19:15;;;;;;;33.27;12.70;;;3.70;99.90;;;;;;4999248;28;20432;-68
2024/01/13 01:21:42;;;;;;;27.63;8.37;;;3.70;99.90;;;;;;5002165;28;20432;-68
2024/01/13 01:24:08;;;;;;;29.73;13.80;;;3.70;99.90;;;;;;4993513;28;20464;-67
2024/01/13 01:26:35;;;;;;;25.30;12.40;;;3.70;99.90;;;;;;4998753;28;20821;-67
2024/01/13 01:29:03;;;;;;;24.37;11.90;;;3.70;99.90;;;;;;5003685;28;20460;-67
2024/01/13 01:31:30;;;;;;;54.47;16.40;;;3.70;99.90;;;;;;5000349;28;20446;-67
2024/01/13 01:33:57;;;;;;;24.60;12.90;;;3.70;99.90;;;;;;4989484;28;21046;-67
2024/01/13 01:36:24;;;;;;;42.40;17.00;;;3.70;99.90;;;;;;4997788;28;20483;-67
2024/01/13 01:38:50;;;;;;;35.77;15.20;;;3.60;99.90;;;;;;5005160;28;20464;-67
2024/01/13 01:41:18;;;;;;;30.37;13.43;;;3.50;99.90;;;;;;5003002;28;20457;-67
2024/01/13 01:43:44;;;;;;;21.30;11.00;;;3.60;99.90;;;;;;5000109;28;20953;-67
2024/01/13 01:46:16;;;;;;;37.53;14.83;;;3.60;99.90;;;;;;4999995;28;20465;-68
2024/01/13 01:48:44;;;;;;;33.87;13.70;;;3.50;99.90;;;;;;5001491;28;20465;-68
2024/01/13 01:51:11;;;;;;;21.73;10.53;;;3.60;99.90;;;;;;4989236;28;20472;-67
2024/01/13 01:53:39;;;;;;;31.70;13.57;;;3.70;99.90;;;;;;5002396;28;20442;-67
2024/01/13 01:56:12;;;;;;;29.63;11.17;;;3.60;99.90;;;;;;4992025;28;20489;-67
2024/01/13 01:58:40;;;;;;;23.50;12.40;;;3.70;99.90;;;;;;4999446;28;20472;-67
2024/01/13 02:01:08;;;;;;;31.77;10.50;;;3.60;99.90;;;;;;5003353;28;20467;-67
2024/01/13 02:03:39;;;;;;;17.77;12.47;;;3.70;99.90;;;;;;4999766;28;20840;-67
2024/01/13 02:06:06;;;;;;;17.33;10.20;;;3.60;99.90;;;;;;4998531;28;20456;-67
2024/01/13 02:08:33;;;;;;;30.37;12.07;;;3.60;99.90;;;;;;4998627;28;20461;-67
2024/01/13 02:11:00;;;;;;;23.80;10.70;;;3.70;99.90;;;;;;5000427;28;20465;-67
2024/01/13 02:13:27;;;;;;;28.57;10.27;;;3.70;99.90;;;;;;4998493;28;20465;-68
2024/01/13 02:15:54;;;;;;;28.53;13.70;;;3.80;99.90;;;;;;4999517;28;20490;-67
2024/01/13 02:18:20;;;;;;;19.73;14.13;;;3.80;99.90;;;;;;4997714;28;20440;-68
2024/01/13 02:20:49;;;;;;;33.30;11.33;;;3.80;99.90;;;;;;4999832;28;20446;-67
2024/01/13 02:23:17;;;;;;;20.67;10.17;;;3.80;99.90;;;;;;5000747;28;20555;-67
2024/01/13 02:25:44;;;;;;;32.60;13.73;;;3.60;99.90;;;;;;5003255;28;20480;-67
2024/01/13 02:28:11;;;;;;;24.80;11.60;;;3.70;99.90;;;;;;4997191;28;20465;-68
2024/01/13 02:30:38;;;;;;;27.83;10.17;;;3.70;99.90;;;;;;4993617;28;21196;-68
2024/01/13 02:33:05;;;;;;;23.10;13.57;;;3.70;99.90;;;;;;4986657;28;20451;-67
2024/01/13 02:35:32;;;;;;;27.67;13.70;;;3.70;99.90;;;;;;5002923;28;20554;-67
2024/01/13 02:37:58;;;;;;;19.03;11.73;;;3.60;99.90;;;;;;4992136;28;20536;-67
2024/01/13 02:40:26;;;;;;;40.37;14.13;;;3.60;99.90;;;;;;4996231;28;20455;-67
2024/01/13 02:42:53;;;;;;;29.30;15.00;;;3.60;99.90;;;;;;4998239;28;20439;-67
2024/01/13 02:45:20;;;;;;;23.60;12.27;;;3.60;99.90;;;;;;4999236;28;20465;-67
2024/01/13 02:47:53;;;;;;;35.53;16.20;;;3.60;99.90;;;;;;4992827;28;21077;-67
2024/01/13 02:50:20;;;;;;;23.77;11.90;;;3.60;99.90;;;;;;4996573;28;20428;-67
2024/01/13 02:52:47;;;;;;;26.43;11.80;;;3.50;99.90;;;;;;4992648;28;20471;-67
2024/01/13 02:55:13;;;;;;;23.70;12.93;;;3.60;99.90;;;;;;4985957;28;20814;-67
2024/01/13 02:57:41;;;;;;;41.00;9.80;;;3.60;99.90;;;;;;4995969;28;20458;-67
2024/01/13 03:00:09;;;;;;;19.27;7.83;;;3.70;99.90;;;;;;5001192;28;20432;-67
2024/01/13 03:02:36;;;;;;;20.00;9.77;;;3.60;99.90;;;;;;4994654;28;20576;-67
2024/01/13 03:05:03;;;;;;;17.20;8.80;;;3.60;99.90;;;;;;4996780;28;20483;-67
2024/01/13 03:07:30;;;;;;;30.70;11.20;;;3.60;99.90;;;;;;4992954;28;20436;-67
2024/01/13 03:09:57;;;;;;;15.43;7.57;;;3.70;99.90;;;;;;4994869;28;20461;-67
2024/01/13 03:12:24;;;;;;;25.20;10.37;;;3.80;99.90;;;;;;4995458;28;20428;-67
2024/01/13 03:14:52;;;;;;;13.27;9.67;;;3.80;99.90;;;;;;4999992;28;20480;-67
2024/01/13 03:17:18;;;;;;;19.33;7.90;;;3.80;99.90;;;;;;4992944;28;20941;-67
2024/01/13 03:19:45;;;;;;;25.17;13.33;;;3.80;99.90;;;;;;4995704;28;20440;-67
2024/01/13 03:22:12;;;;;;;14.60;9.53;;;3.70;99.90;;;;;;4999273;28;21024;-67
2024/01/13 03:24:39;;;;;;;12.20;7.37;;;3.60;99.90;;;;;;4997260;28;20507;-68
2024/01/13 03:27:05;;;;;;;27.70;11.57;;;3.60;99.90;;;;;;4992089;28;20473;-68
2024/01/13 03:29:32;;;;;;;18.67;13.40;;;3.60;99.90;;;;;;4998620;28;20476;-67
2024/01/13 03:32:00;;;;;;;22.10;11.50;;;3.50;99.90;;;;;;4990849;28;24606;-68
2024/01/13 03:34:27;;;;;;;11.63;8.87;;;3.80;99.90;;;;;;4994811;28;21301;-67
2024/01/13 03:36:54;;;;;;;18.77;9.60;;;3.80;99.90;;;;;;4996771;28;20603;-67
2024/01/13 03:39:20;;;;;;;15.93;9.53;;;3.70;99.90;;;;;;4997224;28;20455;-67
2024/01/13 03:41:49;;;;;;;16.90;9.67;;;3.80;99.90;;;;;;4998074;28;20432;-67
2024/01/13 03:44:16;;;;;;;21.40;10.83;;;3.80;99.90;;;;;;4998156;28;20456;-68
2024/01/13 03:46:42;;;;;;;19.20;9.43;;;3.80;99.90;;;;;;4997548;28;20439;-68
2024/01/13 03:49:10;;;;;;;18.10;9.90;;;3.70;99.90;;;;;;4999790;28;20452;-67
2024/01/13 03:51:37;;;;;;;10.83;9.27;;;3.70;99.90;;;;;;4999351;28;20431;-67
2024/01/13 03:54:04;;;;;;;23.80;8.17;;;3.80;99.90;;;;;;4995497;28;21313;-67
2024/01/13 03:56:31;;;;;;;19.17;9.20;;;3.80;99.90;;;;;;4995421;28;20530;-67
2024/01/13 03:58:57;;;;;;;19.87;11.47;;;3.80;99.90;;;;;;4997271;28;20439;-67
2024/01/13 04:01:24;;;;;;;13.60;7.53;;;3.90;99.90;;;;;;4993710;28;20461;-67
2024/01/13 04:03:51;;;;;;;16.93;10.27;;;3.80;99.90;;;;;;4996836;28;20421;-68
2024/01/13 04:06:19;;;;;;;16.30;9.10;;;3.90;99.90;;;;;;4994319;28;20442;-67
2024/01/13 04:08:46;;;;;;;16.10;9.23;;;3.90;99.90;;;;;;4996111;28;20428;-67
2024/01/13 04:11:13;;;;;;;15.10;9.73;;;3.90;99.90;;;;;;4994106;28;20486;-67
2024/01/13 04:13:39;;;;;;;19.70;11.53;;;3.90;99.90;;;;;;4995360;28;21055;-67
2024/01/13 04:16:07;;;;;;;16.70;8.77;;;3.90;99.90;;;;;;4992022;28;20489;-67
2024/01/13 04:18:34;;;;;;;12.17;8.37;;;3.90;99.90;;;;;;4995772;28;20542;-67
2024/01/13 04:21:01;;;;;;;16.27;9.17;;;4.00;99.90;;;;;;4994823;28;20816;-67
2024/01/13 04:23:29;;;;;;;15.60;9.50;;;3.90;99.90;;;;;;4993499;28;20428;-67
2024/01/13 04:25:56;;;;;;;16.63;6.70;;;3.90;99.90;;;;;;4994333;28;20472;-67
2024/01/13 04:28:22;;;;;;;12.93;7.77;;;4.00;99.90;;;;;;4999701;28;20818;-67
2024/01/13 04:30:49;;;;;;;15.77;7.10;;;3.90;99.90;;;;;;4999056;28;20453;-67
2024/01/13 04:33:16;;;;;;;13.77;8.00;;;3.70;99.90;;;;;;5002703;28;20440;-67
2024/01/13 04:35:42;;;;;;;21.23;7.60;;;3.60;99.90;;;;;;4996522;28;20488;-67
2024/01/13 04:38:09;;;;;;;12.83;7.70;;;3.60;99.90;;;;;;4995333;28;20444;-67
2024/01/13 04:40:37;;;;;;;18.33;8.00;;;3.50;99.90;;;;;;4994257;28;20449;-67
2024/01/13 04:43:04;;;;;;;7.30;5.10;;;3.50;99.90;;;;;;4997488;28;21112;-67
2024/01/13 04:45:31;;;;;;;12.97;8.67;;;3.60;99.90;;;;;;4998947;28;20506;-68
2024/01/13 04:47:58;;;;;;;9.40;6.30;;;3.70;99.90;;;;;;4999907;28;20464;-68
2024/01/13 04:50:25;;;;;;;11.90;6.87;;;3.60;99.90;;;;;;4997665;28;20760;-67
2024/01/13 04:52:53;;;;;;;9.70;7.60;;;3.60;99.90;;;;;;5000231;28;20455;-67
2024/01/13 04:55:20;;;;;;;12.33;8.57;;;3.70;99.90;;;;;;4995940;28;20535;-67
2024/01/13 04:57:48;;;;;;;8.50;6.07;;;3.70;99.90;;;;;;4995418;28;20572;-67
2024/01/13 05:00:16;;;;;;;11.27;6.60;;;3.70;99.90;;;;;;4997954;28;20465;-67
2024/01/13 05:02:43;;;;;;;13.30;7.10;;;3.70;99.90;;;;;;4996876;28;20467;-67
2024/01/13 05:05:09;;;;;;;8.40;2.67;;;3.70;99.90;;;;;;4999461;28;20439;-67
2024/01/13 05:07:38;;;;;;;8.93;4.93;;;3.70;99.90;;;;;;4999625;28;20445;-67
2024/01/13 05:10:07;;;;;;;20.87;8.57;;;3.70;99.90;;;;;;4998586;28;20486;-67
2024/01/13 05:12:34;;;;;;;15.23;6.37;;;3.80;99.90;;;;;;4999391;28;20461;-67
2024/01/13 05:15:03;;;;;;;10.77;7.43;;;3.80;99.90;;;;;;4998520;28;20752;-67
2024/01/13 05:17:29;;;;;;;8.13;4.57;;;3.80;99.90;;;;;;4995701;28;20477;-67
2024/01/13 05:19:56;;;;;;;9.03;5.00;;;3.80;99.90;;;;;;4998449;28;20440;-68
2024/01/13 05:22:23;;;;;;;3.93;3.50;;;3.70;99.90;;;;;;4996770;28;20478;-67
2024/01/13 05:24:50;;;;;;;6.73;6.20;;;3.70;99.90;;;;;;4998157;28;20496;-67
2024/01/13 05:27:16;;;;;;;13.70;9.90;;;3.60;99.90;;;;;;4997880;28;20796;-67
2024/01/13 05:29:43;;;;;;;11.27;4.67;;;3.50;99.90;;;;;;4996411;28;20527;-68
2024/01/13 05:32:11;;;;;;;16.57;7.53;;;3.50;99.90;;;;;;4995382;28;20495;-67
2024/01/13 05:34:39;;;;;;;10.37;6.17;;;3.50;99.90;;;;;;4999609;28;20453;-67
2024/01/13 05:37:06;;;;;;;13.10;6.70;;;3.50;99.90;;;;;;4993320;28;20714;-67
2024/01/13 05:39:32;;;;;;;13.07;5.33;;;3.50;99.90;;;;;;4996988;28;20557;-67
2024/01/13 05:41:59;;;;;;;15.77;7.23;;;3.40;99.90;;;;;;4996034;28;20428;-67
2024/01/13 05:44:26;;;;;;;5.53;4.63;;;3.50;99.90;;;;;;4996523;28;20556;-67
2024/01/13 05:46:53;;;;;;;4.87;3.37;;;3.50;99.90;;;;;;4999695;28;20790;-67
2024/01/13 05:49:21;;;;;;;13.30;8.23;;;3.50;99.90;;;;;;4999808;28;20462;-67
2024/01/13 05:51:47;;;;;;;13.97;8.13;;;3.40;99.90;;;;;;4995115;28;20460;-67
2024/01/13 05:54:14;;;;;;;12.40;8.00;;;3.50;99.90;;;;;;4996600;28;20452;-67
2024/01/13 05:56:41;;;;;;;5.40;3.40;;;3.60;99.90;;;;;;4995488;28;20463;-67
2024/01/13 05:59:08;;;;;;;14.73;8.93;;;3.60;99.90;;;;;;4996094;28;20898;-67
2024/01/13 06:01:34;;;;;;;20.70;8.53;;;3.50;99.90;;;;;;4995505;28;20433;-67
2024/01/13 06:04:01;;;;;;;13.93;7.43;;;3.50;99.90;;;;;;4994749;28;20483;-67
2024/01/13 06:06:29;;;;;;;15.30;10.63;;;3.50;99.90;;;;;;4997594;28;20454;-67
2024/01/13 06:08:56;;;;;;;8.67;6.40;;;3.50;99.90;;;;;;5000439;28;20937;-67
2024/01/13 06:11:22;;;;;;;19.20;5.87;;;3.40;99.90;;;;;;4993678;28;20455;-67
2024/01/13 06:13:49;;;;;;;8.83;7.97;;;3.40;99.90;;;;;;4995055;28;20431;-67
2024/01/13 06:16:17;;;;;;;7.77;6.57;;;3.50;99.90;;;;;;4995321;28;20478;-67
2024/01/13 06:18:44;;;;;;;13.10;7.40;;;3.40;99.90;;;;;;4997705;28;20798;-68
2024/01/13 06:21:10;;;;;;;13.97;8.20;;;3.50;99.90;;;;;;4993569;28;20436;-67
2024/01/13 06:23:38;;;;;;;9.23;7.10;;;3.50;99.90;;;;;;4992901;28;20876;-67
2024/01/13 06:26:06;;;;;;;11.00;6.30;;;3.50;99.90;;;;;;4995109;28;20500;-67
2024/01/13 06:28:32;;;;;;;6.30;5.70;;;3.50;99.90;;;;;;4994492;28;20470;-67
2024/01/13 06:30:59;;;;;;;8.90;6.57;;;3.40;99.90;;;;;;4997737;28;20556;-67
2024/01/13 06:33:26;;;;;;;10.50;5.20;;;3.50;99.90;;;;;;4997162;28;20428;-67
2024/01/13 06:35:52;;;;;;;8.93;6.40;;;3.50;99.90;;;;;;4995000;28;20470;-67
2024/01/13 06:38:19;;;;;;;14.03;7.80;;;3.50;99.90;;;;;;5003489;28;20915;-67
2024/01/13 06:40:47;;;;;;;9.20;5.27;;;3.50;99.90;;;;;;5005456;28;20464;-67
2024/01/13 06:43:14;;;;;;;21.70;10.63;;;3.60;99.90;;;;;;4996855;28;20461;-67
2024/01/13 06:45:41;;;;;;;2.17;1.90;;;3.50;99.90;;;;;;4997358;28;20453;-67
2024/01/13 06:48:06;;;;;;;11.77;7.13;;;3.50;99.90;;;;;;4997378;28;20435;-67
2024/01/13 06:50:33;;;;;;;14.63;8.00;;;3.50;99.90;;;;;;4995109;28;20789;-67
2024/01/13 06:53:00;;;;;;;11.93;7.63;;;3.50;99.90;;;;;;4997923;28;20724;-68
2024/01/13 06:55:26;;;;;;;15.37;6.40;;;3.50;99.90;;;;;;5000815;28;20467;-67
2024/01/13 06:57:54;;;;;;;19.43;9.27;;;3.50;99.90;;;;;;4994033;28;20616;-67
2024/01/13 07:00:21;;;;;;;16.70;8.67;;;3.50;99.90;;;;;;4996446;28;20477;-67
2024/01/13 07:02:48;;;;;;;9.20;5.23;;;3.50;99.90;;;;;;4992296;28;20440;-67
2024/01/13 07:05:16;;;;;;;23.77;8.10;;;3.60;99.90;;;;;;5000232;28;20860;-67
2024/01/13 07:07:43;;;;;;;11.53;6.63;;;3.60;99.90;;;;;;4998447;28;20831;-67
2024/01/13 07:10:10;;;;;;;15.57;9.53;;;3.60;99.90;;;;;;4998530;28;20443;-67
2024/01/13 07:12:37;;;;;;;8.33;5.63;;;3.60;99.90;;;;;;4998221;28;20507;-68
2024/01/13 07:15:06;;;;;;;15.27;10.83;;;3.60;99.90;;;;;;5006130;28;20539;-67
2024/01/13 07:17:36;;;;;;;11.73;7.87;;;3.50;99.90;;;;;;5001606;28;20463;-67
2024/01/13 07:20:03;;;;;;;19.27;8.80;;;3.50;99.90;;;;;;5000144;28;20469;-67
2024/01/13 07:22:30;;;;;;;16.80;7.83;;;3.50;99.90;;;;;;4999528;28;20974;-67
2024/01/13 07:24:56;;;;;;;7.10;6.37;;;3.50;99.90;;;;;;4993835;28;20507;-68
2024/01/13 07:27:23;;;;;;;17.67;9.60;;;3.50;99.90;;;;;;4993250;28;20935;-67
2024/01/13 07:29:50;;;;;;;9.43;6.23;;;3.50;99.90;;;;;;4996181;28;20444;-67
2024/01/13 07:32:18;;;;;;;9.33;6.20;;;3.50;99.90;;;;;;4996302;28;20502;-67
2024/01/13 07:34:45;;;;;;;17.53;5.80;;;3.40;99.90;;;;;;4994154;28;20983;-67
2024/01/13 07:37:12;;;;;;;9.27;5.90;;;3.30;99.90;;;;;;4996476;28;20492;-67
2024/01/13 07:39:39;;;;;;;17.07;6.77;;;3.30;99.90;;;;;;4995919;28;20436;-67
2024/01/13 07:42:05;;;;;;;7.73;5.57;;;3.40;99.90;;;;;;4994681;28;20444;-68
2024/01/13 07:44:32;;;;;;;14.20;9.27;;;3.50;99.90;;;;;;4998022;28;20470;-67
2024/01/13 07:47:01;;;;;;;11.43;8.00;;;3.50;99.90;;;;;;4995380;28;20432;-67
2024/01/13 07:49:29;;;;;;;12.30;7.70;;;3.50;99.90;;;;;;4997214;28;21132;-67
2024/01/13 07:51:56;;;;;;;9.03;7.30;;;3.50;99.90;;;;;;4998076;28;20448;-67
2024/01/13 07:54:23;;;;;;;14.70;6.70;;;3.50;99.90;;;;;;4998423;28;20512;-67
2024/01/13 07:56:50;;;;;;;13.90;9.63;;;3.50;99.90;;;;;;4996292;28;20466;-67
2024/01/13 07:59:17;;;;;;;23.80;9.50;;;3.60;99.90;;;;;;4994511;28;20448;-67
2024/01/13 08:01:44;;;;;;;10.40;6.13;;;3.60;99.90;;;;;;4995866;28;20426;-67
2024/01/13 08:04:11;;;;;;;20.97;8.73;;;3.60;99.90;;;;;;4997812;28;20487;-67
2024/01/13 08:06:39;;;;;;;11.90;7.73;;;3.60;99.90;;;;;;4997117;28;20436;-68
2024/01/13 08:09:06;;;;;;;7.83;5.20;;;3.70;99.90;;;;;;5002142;28;21023;-67
2024/01/13 08:11:33;;;;;;;5.47;3.60;;;3.80;99.90;;;;;;5000500;28;20466;-67
2024/01/13 08:14:01;;;;;;;3.90;3.47;;;3.70;99.90;;;;;;5000267;28;20563;-67
2024/01/13 08:16:29;;;;;;;6.17;4.10;;;3.70;99.90;;;;;;5000233;28;20464;-67
2024/01/13 08:18:56;;;;;;;12.23;7.53;;;3.60;99.90;;;;;;5008246;28;20461;-67
2024/01/13 08:21:22;;;;;;;5.17;4.70;;;3.70;99.90;;;;;;4998090;28;20549;-67
2024/01/13 08:23:50;;;;;;;16.30;6.97;;;3.70;99.90;;;;;;5000179;28;20427;-67
2024/01/13 08:26:17;;;;;;;6.93;4.40;;;3.80;99.90;;;;;;5000352;28;20446;-67
2024/01/13 08:28:44;;;;;;;9.10;7.00;;;3.70;99.90;;;;;;4999896;28;20450;-67
2024/01/13 08:31:10;;;;;;;6.33;5.03;;;3.70;99.90;;;;;;5000948;28;20917;-67
2024/01/13 08:33:38;;;;;;;8.50;5.27;;;3.60;99.90;;;;;;4999227;28;20475;-67
2024/01/13 08:36:05;;;;;;;2.83;2.57;;;3.60;99.90;;;;;;4997768;28;20459;-67
2024/01/13 08:38:32;;;;;;;6.93;4.10;;;3.60;99.90;;;;;;5000164;28;20492;-67
2024/01/13 08:41:00;;;;;;;4.77;4.33;;;3.60;99.90;;;;;;4997408;28;20487;-67
2024/01/13 08:43:26;;;;;;;10.80;6.70;;;3.70;99.90;;;;;;4999547;28;20773;-67
2024/01/13 08:45:53;;;;;;;15.40;4.97;;;3.70;99.90;;;;;;5008988;28;20844;-67
2024/01/13 08:48:20;;;;;;;16.03;2.30;;;3.70;99.90;;;;;;5003593;28;20529;-67
2024/01/13 08:50:47;;;;;;;8.03;5.77;;;3.70;99.90;;;;;;4999836;28;20857;-67
2024/01/13 08:53:13;;;;;;;8.10;4.60;;;3.70;99.90;;;;;;5007141;28;20435;-67
2024/01/13 08:55:40;;;;;;;7.73;5.00;;;3.70;99.90;;;;;;5000656;28;20772;-67
2024/01/13 08:58:08;;;;;;;4.03;3.30;;;3.70;99.90;;;;;;5002111;28;20475;-67
2024/01/13 09:00:35;;;;;;;5.60;4.10;;;3.70;99.90;;;;;;5004300;28;20435;-67
2024/01/13 09:03:02;;;;;;;7.63;6.13;;;3.70;99.90;;;;;;4999952;28;20447;-67
2024/01/13 09:05:29;;;;;;;11.80;5.07;;;3.80;99.90;;;;;;5007915;28;20439;-67
2024/01/13 09:07:57;;;;;;;8.30;5.37;;;3.80;99.90;;;;;;5003142;28;20434;-67
2024/01/13 09:10:23;;;;;;;15.83;5.50;;;3.80;99.90;;;;;;5006443;28;20431;-67
2024/01/13 09:12:50;;;;;;;12.63;5.27;;;3.70;99.90;;;;;;4999561;28;20432;-67
2024/01/13 09:15:18;;;;;;;8.60;5.97;;;3.70;99.90;;;;;;4997368;28;20983;-67
2024/01/13 09:17:45;;;;;;;11.13;7.20;;;3.70;99.90;;;;;;4997706;28;20451;-67
2024/01/13 09:20:12;;;;;;;19.10;8.60;;;3.70;99.90;;;;;;4997550;28;20704;-67
2024/01/13 09:22:40;;;;;;;9.23;6.73;;;3.90;99.90;;;;;;4995585;28;20433;-67
2024/01/13 09:25:08;;;;;;;14.50;9.50;;;3.80;99.90;;;;;;5003348;28;20458;-67
2024/01/13 09:27:35;;;;;;;14.10;7.43;;;3.70;99.90;;;;;;4994920;28;20465;-67
2024/01/13 09:30:02;;;;;;;10.77;6.17;;;3.70;99.90;;;;;;4999118;28;20473;-67
2024/01/13 09:32:30;;;;;;;12.03;7.20;;;3.70;99.90;;;;;;4996774;28;20681;-67
2024/01/13 09:34:57;;;;;;;23.83;8.73;;;3.70;99.90;;;;;;4999460;28;20576;-68
2024/01/13 09:37:24;;;;;;;24.77;8.50;;;3.70;99.90;;;;;;5000044;28;20890;-67
2024/01/13 09:39:51;;;;;;;15.37;8.50;;;3.70;99.90;;;;;;4995939;28;20463;-67
2024/01/13 09:42:28;;;;;;;9.23;5.40;;;3.70;99.90;;;;;;5000545;28;20453;-67
2024/01/13 09:44:54;;;;;;;3.17;2.40;;;3.70;99.90;;;;;;5008450;28;20478;-68
2024/01/13 09:47:22;;;;;;;15.20;9.30;;;3.70;99.90;;;;;;5005284;28;20461;-68
2024/01/13 09:49:51;;;;;;;14.50;7.80;;;3.70;99.90;;;;;;5003777;28;20513;-68
2024/01/13 09:52:19;;;;;;;5.63;4.57;;;3.80;99.90;;;;;;5003809;28;20465;-68
2024/01/13 09:54:50;;;;;;;13.30;7.20;;;3.90;99.90;;;;;;5003376;28;20498;-68
2024/01/13 09:57:18;;;;;;;11.63;5.90;;;3.80;99.90;;;;;;5002104;28;20467;-67
2024/01/13 09:59:45;;;;;;;19.03;7.30;;;3.80;99.90;;;;;;5006127;28;20424;-68
2024/01/13 10:02:13;;;;;;;14.30;8.33;;;3.80;99.90;;;;;;4999240;28;20439;-67
2024/01/13 10:04:40;;;;;;;15.17;7.60;;;3.80;99.90;;;;;;5005136;28;20452;-67
2024/01/13 10:07:09;;;;;;;21.63;8.37;;;3.80;99.90;;;;;;5001905;28;20451;-67
2024/01/13 10:09:36;;;;;;;13.90;9.13;;;3.80;99.90;;;;;;4996745;28;20926;-67
2024/01/13 10:12:06;;;;;;;13.40;6.40;;;3.70;99.90;;;;;;5002803;28;21407;-67
2024/01/13 10:14:33;;;;;;;6.90;5.70;;;3.80;99.90;;;;;;5006256;28;20485;-67
2024/01/13 10:17:03;;;;;;;7.47;5.27;;;3.70;99.90;;;;;;4998593;28;20907;-67
2024/01/13 10:19:30;;;;;;;3.07;2.47;;;3.80;99.90;;;;;;4996131;28;20458;-67
2024/01/13 10:21:57;;;;;;;14.77;8.70;;;3.80;99.90;;;;;;4996263;28;20450;-67
2024/01/13 10:24:25;;;;;;;13.53;7.73;;;3.80;99.90;;;;;;4996019;28;20443;-68
2024/01/13 10:26:52;;;;;;;9.70;8.00;;;3.80;99.90;;;;;;4997414;28;20474;-67
2024/01/13 10:29:20;;;;;;;12.67;7.80;;;3.90;99.90;;;;;;4992405;28;20923;-67
2024/01/13 10:31:50;;;;;;;14.57;11.10;;;3.90;99.90;;;;;;4999447;28;20443;-67
2024/01/13 10:34:18;;;;;;;13.73;9.07;;;3.90;99.90;;;;;;4996388;28;20828;-67
2024/01/13 10:36:45;;;;;;;12.10;6.80;;;3.90;99.90;;;;;;4994317;28;20457;-67
2024/01/13 10:39:11;;;;;;;7.70;4.47;;;3.90;99.90;;;;;;5000825;28;20459;-67
2024/01/13 10:41:45;;;;;;;19.33;9.77;;;4.00;99.90;;;;;;5005072;28;20480;-67
2024/01/13 10:44:17;;;;;;;16.33;11.10;;;3.90;99.90;;;;;;4998810;28;20831;-67
2024/01/13 10:46:50;;;;;;;11.07;6.37;;;3.90;99.90;;;;;;5002350;28;20534;-67
2024/01/13 10:49:22;;;;;;;20.00;9.57;;;3.90;99.90;;;;;;4998080;28;20436;-67
2024/01/13 10:51:55;;;;;;;20.67;8.33;;;3.90;99.90;;;;;;5003166;28;20808;-67
2024/01/13 10:54:25;;;;;;;11.73;9.67;;;4.00;99.90;;;;;;5003647;28;20816;-67
2024/01/13 10:56:53;;;;;;;20.93;10.27;;;4.10;99.90;;;;;;4999649;28;20593;-67
2024/01/13 10:59:20;;;;;;;12.70;7.43;;;4.00;99.90;;;;;;4999386;28;20591;-67
2024/01/13 11:01:49;;;;;;;9.90;7.67;;;3.80;99.90;;;;;;4997657;28;20449;-67
2024/01/13 11:04:17;;;;;;;11.90;7.30;;;3.80;99.90;;;;;;5005466;28;20851;-67
2024/01/13 11:06:44;;;;;;;14.27;6.97;;;3.90;99.90;;;;;;4999367;28;20435;-67
2024/01/13 11:09:13;;;;;;;11.47;8.10;;;4.00;99.90;;;;;;4994945;28;20442;-67
2024/01/13 11:11:43;;;;;;;13.80;9.77;;;3.90;99.90;;;;;;4999142;28;20515;-67
2024/01/13 11:14:15;;;;;;;13.90;7.07;;;3.90;99.90;;;;;;4997192;28;20467;-67
2024/01/13 11:16:44;;;;;;;8.40;6.13;;;3.90;99.90;;;;;;5000738;28;20445;-67
2024/01/13 11:19:12;;;;;;;12.50;7.13;;;4.00;99.90;;;;;;4998405;28;20490;-67
2024/01/13 11:21:41;;;;;;;5.53;4.53;;;4.00;99.90;;;;;;5002651;28;20439;-67
2024/01/13 11:24:13;;;;;;;16.73;9.17;;;3.90;99.90;;;;;;4994331;28;20599;-67
2024/01/13 11:26:44;;;;;;;5.97;5.37;;;3.80;99.90;;;;;;5005218;28;20457;-67
2024/01/13 11:29:19;;;;;;;8.53;5.27;;;3.80;99.90;;;;;;5004707;28;20442;-67
2024/01/13 11:31:46;;;;;;;15.30;6.70;;;3.80;99.90;;;;;;5010462;28;20495;-67
2024/01/13 11:34:14;;;;;;;8.87;6.60;;;3.80;99.90;;;;;;4999350;28;20510;-68
2024/01/13 11:36:45;;;;;;;7.00;5.17;;;3.80;99.90;;;;;;4995751;28;20493;-67
2024/01/13 11:39:11;;;;;;;8.30;7.50;;;3.80;99.90;;;;;;4999933;28;20482;-67
2024/01/13 11:41:40;;;;;;;8.83;7.37;;;3.80;99.90;;;;;;4998847;28;20450;-67
2024/01/13 11:44:07;;;;;;;6.63;5.77;;;3.80;99.90;;;;;;4999528;28;20451;-67
2024/01/13 11:46:38;;;;;;;7.33;5.20;;;3.80;99.90;;;;;;5000099;28;20445;-67
2024/01/13 11:49:05;;;;;;;6.30;3.83;;;3.90;99.90;;;;;;5000634;28;20520;-67
2024/01/13 11:51:57;;;;;;;11.40;7.67;;;3.80;99.90;;;;;;5000003;28;20896;-67
2024/01/13 11:54:24;;;;;;;13.00;6.50;;;3.80;99.90;;;;;;5001157;28;20869;-68
2024/01/13 11:56:51;;;;;;;11.93;7.57;;;3.80;99.90;;;;;;5001193;28;20431;-67
2024/01/13 11:59:18;;;;;;;8.43;6.37;;;3.80;99.90;;;;;;4995402;28;20464;-67
2024/01/13 12:01:47;;;;;;;17.97;9.13;;;3.80;99.90;;;;;;4999132;28;20463;-67
2024/01/13 12:04:14;;;;;;;15.80;5.63;;;3.80;99.90;;;;;;4997836;28;20456;-67
2024/01/13 12:06:43;;;;;;;8.00;5.50;;;3.80;99.90;;;;;;5006079;28;20443;-68
2024/01/13 12:09:11;;;;;;;9.60;7.10;;;3.80;99.90;;;;;;4996696;28;20424;-67
2024/01/13 12:11:37;;;;;;;12.17;8.13;;;3.80;99.90;;;;;;4998804;28;20453;-67
2024/01/13 12:14:05;;;;;;;12.73;6.43;;;3.80;99.90;;;;;;5004159;28;20461;-67
2024/01/13 12:16:32;;;;;;;7.23;6.57;;;3.80;99.90;;;;;;4999200;28;20469;-67
2024/01/13 12:19:00;;;;;;;18.63;9.40;;;3.80;99.90;;;;;;4996900;28;20478;-67
2024/01/13 12:21:27;;;;;;;16.60;8.17;;;3.80;99.90;;;;;;5000965;28;20466;-67
2024/01/13 12:23:54;;;;;;;10.07;6.73;;;3.80;99.90;;;;;;5002552;28;20445;-67
2024/01/13 12:26:20;;;;;;;11.20;5.77;;;3.80;99.90;;;;;;5007359;28;20415;-67
2024/01/13 12:28:47;;;;;;;12.63;4.47;;;3.80;99.90;;;;;;5018814;28;20447;-69
2024/01/13 12:31:14;;;;;;;9.33;6.40;;;3.90;99.90;;;;;;4985480;28;20432;-69
2024/01/13 12:33:41;;;;;;;14.03;8.20;;;3.90;99.90;;;;;;5003705;28;20457;-67
2024/01/13 12:36:09;;;;;;;11.97;8.23;;;3.90;99.90;;;;;;4993555;28;20488;-67
2024/01/13 12:38:36;;;;;;;5.27;4.67;;;4.00;99.90;;;;;;4997506;28;21147;-67
2024/01/13 12:41:06;;;;;;;9.13;5.60;;;4.00;99.90;;;;;;4993933;28;20519;-67
2024/01/13 12:43:36;;;;;;;18.10;7.83;;;4.00;99.90;;;;;;5000169;28;20537;-67
2024/01/13 12:46:03;;;;;;;19.90;8.77;;;4.00;99.90;;;;;;4996165;28;20955;-67
2024/01/13 12:48:30;;;;;;;16.43;7.40;;;3.90;99.90;;;;;;4998737;28;20485;-69